Terminal Aerodrome Forecast
Issued by NWS

Home | Current Version | Previous Version | Text Only | Print | Product List | Glossary On
Versions: 1 2 3 4 5 6 7 8 9 10 11 12 13 14 15
497
FTUS46 KMTR 242327
TAFSTS
TAF
KSTS 242327Z 2500/2524 18012KT P6SM SKC
     FM250300 15007KT P6SM SKC
     FM250500 15003KT P6SM BKN006
     FM250900 VRB03KT P6SM OVC005
     FM251830 VRB03KT P6SM SKC
     FM252100 18009KT P6SM SKC=

USA.gov is the U.S. government's official web portal to all federal, state and local government web resources and services.